Doe Hill, Virginia
Current Conditions -  °F | °C
As of 7:15 PM on Sunday 25 Jan 2015 (Local Time) from KVBW Reporting Station
Overcast Overcast  
Wind Chill: 35°   Ceiling: 7500
Heat Index: 35°   Visibility: 10mi
Dew Point: 33°   Wind: 0mph
Humidity: 92%   Direction: NA
Pressure: 29.8"   Gusts: NA
Location:  38.43°N, 79.45°W
Report Text: KVBW 260015Z AUTO 00000KT 10SM OVC075 02/00 A2980 RMK AO2 T00160004
Loading
Personal Weather Stations






























Interactive Weather Map New forecast layout! Learn more

10-Day Weather Forecast

Advertisements
Track Severe Weather on mobile